sensor_id;sensor_type;location;lat;lon;timestamp;temperature;humidity
429;DHT22;201;48.758;9.290;2022-08-01T00:00:23;21.80;1.00
429;DHT22;201;48.758;9.290;2022-08-01T00:02:49;21.70;1.00
429;DHT22;201;48.758;9.290;2022-08-01T00:05:14;21.70;1.00
429;DHT22;201;48.758;9.290;2022-08-01T00:07:40;21.70;1.00
429;DHT22;201;48.758;9.290;2022-08-01T00:10:09;21.60;1.00
429;DHT22;201;48.758;9.290;2022-08-01T00:12:35;21.60;1.00
429;DHT22;201;48.758;9.290;2022-08-01T00:15:01;21.60;1.00
429;DHT22;201;48.758;9.290;2022-08-01T00:17:26;21.60;1.00
429;DHT22;201;48.758;9.290;2022-08-01T00:19:52;21.70;1.00
429;DHT22;201;48.758;9.290;2022-08-01T00:22:17;21.70;1.00
429;DHT22;201;48.758;9.290;2022-08-01T00:24:43;21.70;1.00
429;DHT22;201;48.758;9.290;2022-08-01T00:27:08;21.70;1.00
429;DHT22;201;48.758;9.290;2022-08-01T00:29:34;21.70;1.00
429;DHT22;201;48.758;9.290;2022-08-01T00:31:59;21.70;1.00
429;DHT22;201;48.758;9.290;2022-08-01T00:34:25;21.70;1.00
429;DHT22;201;48.758;9.290;2022-08-01T00:36:50;21.70;1.00
429;DHT22;201;48.758;9.290;2022-08-01T00:39:16;21.60;1.00
429;DHT22;201;48.758;9.290;2022-08-01T00:41:41;21.70;1.00
429;DHT22;201;48.758;9.290;2022-08-01T00:44:07;21.70;1.00
429;DHT22;201;48.758;9.290;2022-08-01T00:46:33;21.60;1.00
429;DHT22;201;48.758;9.290;2022-08-01T00:48:59;21.60;1.00
429;DHT22;201;48.758;9.290;2022-08-01T00:51:25;21.70;1.00
429;DHT22;201;48.758;9.290;2022-08-01T00:53:52;21.70;1.00
429;DHT22;201;48.758;9.290;2022-08-01T00:56:25;21.60;1.00
429;DHT22;201;48.758;9.290;2022-08-01T00:58:51;21.50;1.00
429;DHT22;201;48.758;9.290;2022-08-01T01:01:17;21.50;1.00
429;DHT22;201;48.758;9.290;2022-08-01T01:03:43;21.50;1.00
429;DHT22;201;48.758;9.290;2022-08-01T01:08:48;21.40;1.00
429;DHT22;201;48.758;9.290;2022-08-01T01:11:26;21.40;1.00
429;DHT22;201;48.758;9.290;2022-08-01T01:16:46;21.40;1.00
429;DHT22;201;48.758;9.290;2022-08-01T01:19:16;21.30;1.00
429;DHT22;201;48.758;9.290;2022-08-01T01:26:55;21.20;1.00
429;DHT22;201;48.758;9.290;2022-08-01T01:29:31;21.20;1.00
429;DHT22;201;48.758;9.290;2022-08-01T01:32:18;21.20;1.00
429;DHT22;201;48.758;9.290;2022-08-01T01:34:46;21.10;1.00
429;DHT22;201;48.758;9.290;2022-08-01T01:37:17;21.10;1.00
429;DHT22;201;48.758;9.290;2022-08-01T01:39:44;21.10;1.00
429;DHT22;201;48.758;9.290;2022-08-01T01:42:10;21.00;1.00
429;DHT22;201;48.758;9.290;2022-08-01T01:44:37;21.10;1.00
429;DHT22;201;48.758;9.290;2022-08-01T01:47:04;21.10;1.00
429;DHT22;201;48.758;9.290;2022-08-01T01:49:30;21.10;1.00
429;DHT22;201;48.758;9.290;2022-08-01T01:51:58;21.10;1.00
429;DHT22;201;48.758;9.290;2022-08-01T01:54:28;21.10;1.00
429;DHT22;201;48.758;9.290;2022-08-01T01:56:57;21.00;1.00
429;DHT22;201;48.758;9.290;2022-08-01T01:59:27;21.00;1.00
429;DHT22;201;48.758;9.290;2022-08-01T02:01:55;21.00;1.00
429;DHT22;201;48.758;9.290;2022-08-01T02:04:23;21.10;1.00
429;DHT22;201;48.758;9.290;2022-08-01T02:06:50;21.00;1.00
429;DHT22;201;48.758;9.290;2022-08-01T02:09:18;20.90;1.00
429;DHT22;201;48.758;9.290;2022-08-01T02:11:47;20.90;1.00
429;DHT22;201;48.758;9.290;2022-08-01T02:14:14;20.80;1.00
429;DHT22;201;48.758;9.290;2022-08-01T02:16:44;20.80;1.00
429;DHT22;201;48.758;9.290;2022-08-01T02:19:10;20.80;1.00
429;DHT22;201;48.758;9.290;2022-08-01T02:21:40;20.80;1.00
429;DHT22;201;48.758;9.290;2022-08-01T02:24:20;20.70;1.00
429;DHT22;201;48.758;9.290;2022-08-01T02:26:50;20.70;1.00
429;DHT22;201;48.758;9.290;2022-08-01T02:29:22;20.70;1.00
429;DHT22;201;48.758;9.290;2022-08-01T02:31:51;20.60;1.00
429;DHT22;201;48.758;9.290;2022-08-01T02:34:20;20.70;1.00
429;DHT22;201;48.758;9.290;2022-08-01T02:36:46;20.60;1.00
429;DHT22;201;48.758;9.290;2022-08-01T02:39:14;20.60;1.00
429;DHT22;201;48.758;9.290;2022-08-01T02:41:43;20.60;1.00
429;DHT22;201;48.758;9.290;2022-08-01T02:44:13;20.60;1.00
429;DHT22;201;48.758;9.290;2022-08-01T02:46:54;20.50;1.00
429;DHT22;201;48.758;9.290;2022-08-01T02:49:23;20.60;1.00
429;DHT22;201;48.758;9.290;2022-08-01T02:51:53;20.50;1.00
429;DHT22;201;48.758;9.290;2022-08-01T02:54:20;20.50;1.00
429;DHT22;201;48.758;9.290;2022-08-01T02:56:47;20.40;1.00
429;DHT22;201;48.758;9.290;2022-08-01T02:59:16;20.40;1.00
429;DHT22;201;48.758;9.290;2022-08-01T03:01:44;20.40;1.00
429;DHT22;201;48.758;9.290;2022-08-01T03:04:10;20.30;1.00
429;DHT22;201;48.758;9.290;2022-08-01T03:06:37;20.30;1.00
429;DHT22;201;48.758;9.290;2022-08-01T03:09:04;20.30;1.00
429;DHT22;201;48.758;9.290;2022-08-01T03:11:32;20.30;1.00
429;DHT22;201;48.758;9.290;2022-08-01T03:14:02;20.30;1.00
429;DHT22;201;48.758;9.290;2022-08-01T03:16:31;20.30;1.00
429;DHT22;201;48.758;9.290;2022-08-01T03:18:58;20.20;1.00
429;DHT22;201;48.758;9.290;2022-08-01T03:21:26;20.20;1.00
429;DHT22;201;48.758;9.290;2022-08-01T03:23:53;20.20;1.00
429;DHT22;201;48.758;9.290;2022-08-01T03:26:24;20.10;1.00
429;DHT22;201;48.758;9.290;2022-08-01T03:28:52;20.10;1.00
429;DHT22;201;48.758;9.290;2022-08-01T03:31:20;20.20;1.00
429;DHT22;201;48.758;9.290;2022-08-01T03:33:46;20.20;1.00
429;DHT22;201;48.758;9.290;2022-08-01T03:36:12;20.10;1.00
429;DHT22;201;48.758;9.290;2022-08-01T03:38:39;20.20;1.00
429;DHT22;201;48.758;9.290;2022-08-01T03:41:21;20.10;1.00
429;DHT22;201;48.758;9.290;2022-08-01T03:44:00;20.10;1.00
429;DHT22;201;48.758;9.290;2022-08-01T03:46:48;20.10;1.00
429;DHT22;201;48.758;9.290;2022-08-01T03:49:18;20.00;1.00
429;DHT22;201;48.758;9.290;2022-08-01T03:51:47;20.00;1.00
429;DHT22;201;48.758;9.290;2022-08-01T03:54:16;20.10;1.00
429;DHT22;201;48.758;9.290;2022-08-01T03:56:43;20.00;1.00
429;DHT22;201;48.758;9.290;2022-08-01T03:59:10;20.00;1.00
429;DHT22;201;48.758;9.290;2022-08-01T04:01:36;19.90;1.00
429;DHT22;201;48.758;9.290;2022-08-01T04:04:02;20.00;1.00
429;DHT22;201;48.758;9.290;2022-08-01T04:06:30;20.00;1.00
429;DHT22;201;48.758;9.290;2022-08-01T04:08:55;20.00;1.00
429;DHT22;201;48.758;9.290;2022-08-01T04:11:25;20.00;1.00
429;DHT22;201;48.758;9.290;2022-08-01T04:13:52;20.00;1.00
429;DHT22;201;48.758;9.290;2022-08-01T04:16:19;20.00;1.00
429;DHT22;201;48.758;9.290;2022-08-01T04:18:45;20.10;1.00
429;DHT22;201;48.758;9.290;2022-08-01T04:21:11;20.10;1.00
429;DHT22;201;48.758;9.290;2022-08-01T04:23:39;20.20;1.00
429;DHT22;201;48.758;9.290;2022-08-01T04:26:05;20.20;1.00
429;DHT22;201;48.758;9.290;2022-08-01T04:28:34;20.30;1.00
429;DHT22;201;48.758;9.290;2022-08-01T04:31:01;20.40;1.00
429;DHT22;201;48.758;9.290;2022-08-01T04:33:29;20.60;1.00
429;DHT22;201;48.758;9.290;2022-08-01T04:35:57;20.70;1.00
429;DHT22;201;48.758;9.290;2022-08-01T04:38:25;20.80;1.00
429;DHT22;201;48.758;9.290;2022-08-01T04:40:52;20.90;1.00
429;DHT22;201;48.758;9.290;2022-08-01T04:43:19;21.00;1.00
429;DHT22;201;48.758;9.290;2022-08-01T04:45:45;21.10;1.00
429;DHT22;201;48.758;9.290;2022-08-01T04:48:13;21.10;1.00
429;DHT22;201;48.758;9.290;2022-08-01T04:50:41;21.20;1.00
429;DHT22;201;48.758;9.290;2022-08-01T04:53:12;21.20;1.00
429;DHT22;201;48.758;9.290;2022-08-01T04:55:38;21.30;1.00
429;DHT22;201;48.758;9.290;2022-08-01T04:58:04;21.30;1.00
429;DHT22;201;48.758;9.290;2022-08-01T05:00:30;21.30;1.00
429;DHT22;201;48.758;9.290;2022-08-01T05:02:55;21.20;1.00
429;DHT22;201;48.758;9.290;2022-08-01T05:05:21;21.30;1.00
429;DHT22;201;48.758;9.290;2022-08-01T05:07:46;21.30;1.00
429;DHT22;201;48.758;9.290;2022-08-01T05:10:12;21.30;1.00
429;DHT22;201;48.758;9.290;2022-08-01T05:12:37;21.50;1.00
429;DHT22;201;48.758;9.290;2022-08-01T05:15:03;21.50;1.00
429;DHT22;201;48.758;9.290;2022-08-01T05:17:29;21.80;1.00
429;DHT22;201;48.758;9.290;2022-08-01T05:19:55;22.00;1.00
429;DHT22;201;48.758;9.290;2022-08-01T05:22:20;22.00;1.00
429;DHT22;201;48.758;9.290;2022-08-01T05:24:46;21.90;1.00
429;DHT22;201;48.758;9.290;2022-08-01T05:27:12;21.60;1.00
429;DHT22;201;48.758;9.290;2022-08-01T05:29:39;21.40;1.00
429;DHT22;201;48.758;9.290;2022-08-01T05:32:04;21.30;1.00
429;DHT22;201;48.758;9.290;2022-08-01T05:34:30;21.50;1.00
429;DHT22;201;48.758;9.290;2022-08-01T05:36:56;22.40;1.00
429;DHT22;201;48.758;9.290;2022-08-01T05:39:21;23.70;1.00
429;DHT22;201;48.758;9.290;2022-08-01T05:41:47;25.00;1.00
429;DHT22;201;48.758;9.290;2022-08-01T05:44:12;26.30;1.00
429;DHT22;201;48.758;9.290;2022-08-01T05:46:38;27.50;1.00
429;DHT22;201;48.758;9.290;2022-08-01T05:49:04;28.70;1.00
429;DHT22;201;48.758;9.290;2022-08-01T05:51:30;29.70;1.00
429;DHT22;201;48.758;9.290;2022-08-01T05:53:56;30.40;1.00
429;DHT22;201;48.758;9.290;2022-08-01T05:56:22;30.50;1.00
429;DHT22;201;48.758;9.290;2022-08-01T05:58:49;30.20;1.00
429;DHT22;201;48.758;9.290;2022-08-01T06:01:16;30.20;1.00
429;DHT22;201;48.758;9.290;2022-08-01T06:03:42;30.90;1.00
429;DHT22;201;48.758;9.290;2022-08-01T06:06:07;32.00;1.00
429;DHT22;201;48.758;9.290;2022-08-01T06:08:33;33.00;1.00
429;DHT22;201;48.758;9.290;2022-08-01T06:10:58;34.20;1.00
429;DHT22;201;48.758;9.290;2022-08-01T06:13:24;34.70;1.00
429;DHT22;201;48.758;9.290;2022-08-01T06:15:50;35.40;1.00
429;DHT22;201;48.758;9.290;2022-08-01T06:18:15;36.20;1.00
429;DHT22;201;48.758;9.290;2022-08-01T06:20:41;36.60;1.00
429;DHT22;201;48.758;9.290;2022-08-01T06:23:07;37.30;1.00
429;DHT22;201;48.758;9.290;2022-08-01T06:25:33;38.20;1.00
429;DHT22;201;48.758;9.290;2022-08-01T06:27:59;38.80;1.00
429;DHT22;201;48.758;9.290;2022-08-01T06:30:24;39.50;1.00
429;DHT22;201;48.758;9.290;2022-08-01T06:32:50;40.10;1.00
429;DHT22;201;48.758;9.290;2022-08-01T06:35:15;40.70;1.00
429;DHT22;201;48.758;9.290;2022-08-01T06:37:41;41.20;1.00
429;DHT22;201;48.758;9.290;2022-08-01T06:40:09;41.90;1.00
429;DHT22;201;48.758;9.290;2022-08-01T06:42:35;41.80;1.00
429;DHT22;201;48.758;9.290;2022-08-01T06:45:11;41.50;1.00
429;DHT22;201;48.758;9.290;2022-08-01T06:47:38;41.80;1.00
429;DHT22;201;48.758;9.290;2022-08-01T06:50:05;41.60;1.00
429;DHT22;201;48.758;9.290;2022-08-01T06:52:31;40.60;1.00
429;DHT22;201;48.758;9.290;2022-08-01T06:54:56;40.60;1.00
429;DHT22;201;48.758;9.290;2022-08-01T06:57:22;41.20;1.00
429;DHT22;201;48.758;9.290;2022-08-01T06:59:47;41.80;1.00
429;DHT22;201;48.758;9.290;2022-08-01T07:02:13;42.20;1.00
429;DHT22;201;48.758;9.290;2022-08-01T07:04:39;42.50;1.00
429;DHT22;201;48.758;9.290;2022-08-01T07:07:04;43.00;1.00
429;DHT22;201;48.758;9.290;2022-08-01T07:09:30;43.40;1.00
429;DHT22;201;48.758;9.290;2022-08-01T07:11:55;43.70;1.00
429;DHT22;201;48.758;9.290;2022-08-01T07:14:22;44.40;1.00
429;DHT22;201;48.758;9.290;2022-08-01T07:16:48;44.20;1.00
429;DHT22;201;48.758;9.290;2022-08-01T07:19:14;44.50;1.00
429;DHT22;201;48.758;9.290;2022-08-01T07:21:39;44.70;1.00
429;DHT22;201;48.758;9.290;2022-08-01T07:24:06;45.30;1.00
429;DHT22;201;48.758;9.290;2022-08-01T07:26:32;45.50;1.00
429;DHT22;201;48.758;9.290;2022-08-01T07:28:58;44.70;1.00
429;DHT22;201;48.758;9.290;2022-08-01T07:31:23;44.30;1.00
429;DHT22;201;48.758;9.290;2022-08-01T07:33:50;44.50;1.00
429;DHT22;201;48.758;9.290;2022-08-01T07:36:16;44.30;1.00
429;DHT22;201;48.758;9.290;2022-08-01T07:38:41;43.90;1.00
429;DHT22;201;48.758;9.290;2022-08-01T07:41:07;41.70;1.00
429;DHT22;201;48.758;9.290;2022-08-01T07:43:32;40.10;1.00
429;DHT22;201;48.758;9.290;2022-08-01T07:45:58;39.80;1.00
429;DHT22;201;48.758;9.290;2022-08-01T07:48:23;39.10;1.00
429;DHT22;201;48.758;9.290;2022-08-01T07:50:50;38.90;1.00
429;DHT22;201;48.758;9.290;2022-08-01T07:53:16;39.90;1.00
429;DHT22;201;48.758;9.290;2022-08-01T07:55:42;40.50;1.00
429;DHT22;201;48.758;9.290;2022-08-01T07:58:07;41.80;1.00
429;DHT22;201;48.758;9.290;2022-08-01T08:00:33;41.90;1.00
429;DHT22;201;48.758;9.290;2022-08-01T08:02:58;41.20;1.00
429;DHT22;201;48.758;9.290;2022-08-01T08:05:25;41.10;1.00
429;DHT22;201;48.758;9.290;2022-08-01T08:07:51;41.70;1.00
429;DHT22;201;48.758;9.290;2022-08-01T08:10:16;41.40;1.00
429;DHT22;201;48.758;9.290;2022-08-01T08:12:42;41.60;1.00
429;DHT22;201;48.758;9.290;2022-08-01T08:15:08;42.60;1.00
429;DHT22;201;48.758;9.290;2022-08-01T08:17:33;43.40;1.00
429;DHT22;201;48.758;9.290;2022-08-01T08:19:59;43.20;1.00
429;DHT22;201;48.758;9.290;2022-08-01T08:22:25;42.00;1.00
429;DHT22;201;48.758;9.290;2022-08-01T08:24:50;40.70;1.00
429;DHT22;201;48.758;9.290;2022-08-01T08:27:16;40.60;1.00
429;DHT22;201;48.758;9.290;2022-08-01T08:29:42;40.80;1.00
429;DHT22;201;48.758;9.290;2022-08-01T08:32:07;40.50;1.00
429;DHT22;201;48.758;9.290;2022-08-01T08:34:33;38.90;1.00
429;DHT22;201;48.758;9.290;2022-08-01T08:36:59;38.40;1.00
429;DHT22;201;48.758;9.290;2022-08-01T08:39:25;38.10;1.00
429;DHT22;201;48.758;9.290;2022-08-01T08:41:52;39.20;1.00
429;DHT22;201;48.758;9.290;2022-08-01T08:44:18;38.80;1.00
429;DHT22;201;48.758;9.290;2022-08-01T08:46:49;39.00;1.00
429;DHT22;201;48.758;9.290;2022-08-01T08:49:22;39.20;1.00
429;DHT22;201;48.758;9.290;2022-08-01T08:51:49;38.10;1.00
429;DHT22;201;48.758;9.290;2022-08-01T08:54:17;39.00;1.00
429;DHT22;201;48.758;9.290;2022-08-01T08:56:43;40.90;1.00
429;DHT22;201;48.758;9.290;2022-08-01T08:59:11;41.60;1.00
429;DHT22;201;48.758;9.290;2022-08-01T09:01:39;42.20;1.00
429;DHT22;201;48.758;9.290;2022-08-01T09:04:05;43.20;1.00
429;DHT22;201;48.758;9.290;2022-08-01T09:06:32;42.60;1.00
429;DHT22;201;48.758;9.290;2022-08-01T09:08:58;43.50;1.00
429;DHT22;201;48.758;9.290;2022-08-01T09:11:23;44.70;1.00
429;DHT22;201;48.758;9.290;2022-08-01T09:16:32;46.20;1.00
429;DHT22;201;48.758;9.290;2022-08-01T09:19:14;46.20;1.00
429;DHT22;201;48.758;9.290;2022-08-01T09:21:56;46.00;1.00
429;DHT22;201;48.758;9.290;2022-08-01T09:24:22;43.70;1.00
429;DHT22;201;48.758;9.290;2022-08-01T09:26:48;42.30;1.00
429;DHT22;201;48.758;9.290;2022-08-01T09:29:21;39.90;1.00
429;DHT22;201;48.758;9.290;2022-08-01T09:31:47;38.40;1.00
429;DHT22;201;48.758;9.290;2022-08-01T09:34:13;36.60;1.00
429;DHT22;201;48.758;9.290;2022-08-01T09:36:54;37.00;1.00
429;DHT22;201;48.758;9.290;2022-08-01T09:39:32;37.50;1.00
429;DHT22;201;48.758;9.290;2022-08-01T09:42:01;38.10;1.00
429;DHT22;201;48.758;9.290;2022-08-01T09:44:42;36.90;1.00
429;DHT22;201;48.758;9.290;2022-08-01T09:47:07;35.20;1.00
429;DHT22;201;48.758;9.290;2022-08-01T09:49:35;35.70;1.00
429;DHT22;201;48.758;9.290;2022-08-01T09:52:19;38.40;1.00
429;DHT22;201;48.758;9.290;2022-08-01T09:54:55;41.60;1.00
429;DHT22;201;48.758;9.290;2022-08-01T09:57:21;44.30;1.00
429;DHT22;201;48.758;9.290;2022-08-01T09:59:50;44.70;1.00
429;DHT22;201;48.758;9.290;2022-08-01T10:02:37;43.10;1.00
429;DHT22;201;48.758;9.290;2022-08-01T10:05:06;39.80;1.00
429;DHT22;201;48.758;9.290;2022-08-01T10:07:32;36.70;1.00
429;DHT22;201;48.758;9.290;2022-08-01T10:10:15;34.50;1.00
429;DHT22;201;48.758;9.290;2022-08-01T10:12:42;33.30;1.00
429;DHT22;201;48.758;9.290;2022-08-01T10:15:08;34.90;1.00
429;DHT22;201;48.758;9.290;2022-08-01T10:17:34;37.30;1.00
429;DHT22;201;48.758;9.290;2022-08-01T10:20:04;39.00;1.00
429;DHT22;201;48.758;9.290;2022-08-01T10:22:31;40.80;1.00
429;DHT22;201;48.758;9.290;2022-08-01T10:24:58;43.10;1.00
429;DHT22;201;48.758;9.290;2022-08-01T10:27:28;44.50;1.00
429;DHT22;201;48.758;9.290;2022-08-01T10:29:56;43.80;1.00
429;DHT22;201;48.758;9.290;2022-08-01T10:32:22;42.10;1.00
429;DHT22;201;48.758;9.290;2022-08-01T10:34:52;41.40;1.00
429;DHT22;201;48.758;9.290;2022-08-01T10:37:18;43.40;1.00
429;DHT22;201;48.758;9.290;2022-08-01T10:39:44;45.10;1.00
429;DHT22;201;48.758;9.290;2022-08-01T10:42:11;46.00;1.00
429;DHT22;201;48.758;9.290;2022-08-01T10:44:37;44.00;1.00
429;DHT22;201;48.758;9.290;2022-08-01T10:47:10;44.20;1.00
429;DHT22;201;48.758;9.290;2022-08-01T10:49:45;44.70;1.00
429;DHT22;201;48.758;9.290;2022-08-01T10:52:16;44.40;1.00
429;DHT22;201;48.758;9.290;2022-08-01T10:54:42;42.60;1.00
429;DHT22;201;48.758;9.290;2022-08-01T10:57:07;41.40;1.00
429;DHT22;201;48.758;9.290;2022-08-01T10:59:33;39.50;1.00
429;DHT22;201;48.758;9.290;2022-08-01T11:02:02;37.10;1.00
429;DHT22;201;48.758;9.290;2022-08-01T11:07:22;35.40;1.00
429;DHT22;201;48.758;9.290;2022-08-01T11:10:03;33.80;1.00
429;DHT22;201;48.758;9.290;2022-08-01T11:12:38;31.90;1.00
429;DHT22;201;48.758;9.290;2022-08-01T11:17:46;29.80;1.00
429;DHT22;201;48.758;9.290;2022-08-01T11:20:16;29.10;1.00
429;DHT22;201;48.758;9.290;2022-08-01T11:30:39;28.50;1.00
429;DHT22;201;48.758;9.290;2022-08-01T11:33:05;29.20;1.00
429;DHT22;201;48.758;9.290;2022-08-01T11:35:32;28.90;1.00
429;DHT22;201;48.758;9.290;2022-08-01T11:38:24;28.70;1.00
429;DHT22;201;48.758;9.290;2022-08-01T11:46:58;28.70;1.00
429;DHT22;201;48.758;9.290;2022-08-01T11:52:08;30.00;1.00
429;DHT22;201;48.758;9.290;2022-08-01T11:57:13;29.50;1.00
429;DHT22;201;48.758;9.290;2022-08-01T11:59:47;29.10;1.00
429;DHT22;201;48.758;9.290;2022-08-01T12:04:49;28.40;1.00
429;DHT22;201;48.758;9.290;2022-08-01T12:07:16;28.60;1.00
429;DHT22;201;48.758;9.290;2022-08-01T12:09:42;28.40;1.00
429;DHT22;201;48.758;9.290;2022-08-01T12:12:09;28.40;1.00
429;DHT22;201;48.758;9.290;2022-08-01T12:14:35;28.30;1.00
429;DHT22;201;48.758;9.290;2022-08-01T12:17:01;28.90;1.00
429;DHT22;201;48.758;9.290;2022-08-01T12:19:26;29.00;1.00
429;DHT22;201;48.758;9.290;2022-08-01T12:22:09;29.20;1.00
429;DHT22;201;48.758;9.290;2022-08-01T12:24:36;29.80;1.00
429;DHT22;201;48.758;9.290;2022-08-01T12:27:02;30.10;1.00
429;DHT22;201;48.758;9.290;2022-08-01T12:29:39;29.90;1.00
429;DHT22;201;48.758;9.290;2022-08-01T12:32:28;29.80;1.00
429;DHT22;201;48.758;9.290;2022-08-01T12:34:57;29.60;1.00
429;DHT22;201;48.758;9.290;2022-08-01T12:37:23;30.00;1.00
429;DHT22;201;48.758;9.290;2022-08-01T12:39:49;30.30;1.00
429;DHT22;201;48.758;9.290;2022-08-01T12:42:14;30.70;1.00
429;DHT22;201;48.758;9.290;2022-08-01T12:44:42;31.10;1.00
429;DHT22;201;48.758;9.290;2022-08-01T12:47:10;30.90;1.00
429;DHT22;201;48.758;9.290;2022-08-01T12:49:36;30.50;1.00
429;DHT22;201;48.758;9.290;2022-08-01T12:52:03;30.40;1.00
429;DHT22;201;48.758;9.290;2022-08-01T12:54:29;29.80;1.00
429;DHT22;201;48.758;9.290;2022-08-01T12:56:54;29.60;1.00
429;DHT22;201;48.758;9.290;2022-08-01T12:59:24;29.70;1.00
429;DHT22;201;48.758;9.290;2022-08-01T13:01:51;29.90;1.00
429;DHT22;201;48.758;9.290;2022-08-01T13:04:18;29.70;1.00
429;DHT22;201;48.758;9.290;2022-08-01T13:06:43;29.40;1.00
429;DHT22;201;48.758;9.290;2022-08-01T13:09:10;29.60;1.00
429;DHT22;201;48.758;9.290;2022-08-01T13:11:37;29.90;1.00
429;DHT22;201;48.758;9.290;2022-08-01T13:14:02;29.90;1.00
429;DHT22;201;48.758;9.290;2022-08-01T13:16:28;30.20;1.00
429;DHT22;201;48.758;9.290;2022-08-01T13:18:56;30.20;1.00
429;DHT22;201;48.758;9.290;2022-08-01T13:21:27;30.40;1.00
429;DHT22;201;48.758;9.290;2022-08-01T13:24:10;30.50;1.00
429;DHT22;201;48.758;9.290;2022-08-01T13:26:46;30.40;1.00
429;DHT22;201;48.758;9.290;2022-08-01T13:29:14;30.40;1.00
429;DHT22;201;48.758;9.290;2022-08-01T13:31:41;30.10;1.00
429;DHT22;201;48.758;9.290;2022-08-01T13:34:07;30.30;1.00
429;DHT22;201;48.758;9.290;2022-08-01T13:36:33;30.50;1.00
429;DHT22;201;48.758;9.290;2022-08-01T13:38:59;30.70;1.00
429;DHT22;201;48.758;9.290;2022-08-01T13:41:44;30.40;1.00
429;DHT22;201;48.758;9.290;2022-08-01T13:44:10;30.10;1.00
429;DHT22;201;48.758;9.290;2022-08-01T13:46:37;29.50;1.00
429;DHT22;201;48.758;9.290;2022-08-01T13:49:04;29.20;1.00
429;DHT22;201;48.758;9.290;2022-08-01T13:51:30;29.20;1.00
429;DHT22;201;48.758;9.290;2022-08-01T13:53:56;29.00;1.00
429;DHT22;201;48.758;9.290;2022-08-01T13:56:22;29.20;1.00
429;DHT22;201;48.758;9.290;2022-08-01T13:58:48;29.40;1.00
429;DHT22;201;48.758;9.290;2022-08-01T14:01:13;29.30;1.00
429;DHT22;201;48.758;9.290;2022-08-01T14:03:39;29.10;1.00
429;DHT22;201;48.758;9.290;2022-08-01T14:06:04;29.00;1.00
429;DHT22;201;48.758;9.290;2022-08-01T14:08:30;28.80;1.00
429;DHT22;201;48.758;9.290;2022-08-01T14:10:56;28.50;1.00
429;DHT22;201;48.758;9.290;2022-08-01T14:13:25;28.60;1.00
429;DHT22;201;48.758;9.290;2022-08-01T14:15:51;28.80;1.00
429;DHT22;201;48.758;9.290;2022-08-01T14:18:17;28.90;1.00
429;DHT22;201;48.758;9.290;2022-08-01T14:20:43;28.80;1.00
429;DHT22;201;48.758;9.290;2022-08-01T14:23:09;28.70;1.00
429;DHT22;201;48.758;9.290;2022-08-01T14:25:39;28.60;1.00
429;DHT22;201;48.758;9.290;2022-08-01T14:28:06;28.60;1.00
429;DHT22;201;48.758;9.290;2022-08-01T14:30:32;28.80;1.00
429;DHT22;201;48.758;9.290;2022-08-01T14:32:58;28.90;1.00
429;DHT22;201;48.758;9.290;2022-08-01T14:35:24;29.00;1.00
429;DHT22;201;48.758;9.290;2022-08-01T14:37:50;28.90;1.00
429;DHT22;201;48.758;9.290;2022-08-01T14:40:16;28.70;1.00
429;DHT22;201;48.758;9.290;2022-08-01T14:42:41;28.70;1.00
429;DHT22;201;48.758;9.290;2022-08-01T14:45:10;28.60;1.00
429;DHT22;201;48.758;9.290;2022-08-01T14:47:37;28.60;1.00
429;DHT22;201;48.758;9.290;2022-08-01T14:50:08;28.50;1.00
429;DHT22;201;48.758;9.290;2022-08-01T14:52:35;28.40;1.00
429;DHT22;201;48.758;9.290;2022-08-01T14:55:02;28.70;1.00
429;DHT22;201;48.758;9.290;2022-08-01T14:57:27;28.70;1.00
429;DHT22;201;48.758;9.290;2022-08-01T14:59:53;28.60;1.00
429;DHT22;201;48.758;9.290;2022-08-01T15:02:18;28.60;1.00
429;DHT22;201;48.758;9.290;2022-08-01T15:04:46;28.60;1.00
429;DHT22;201;48.758;9.290;2022-08-01T15:07:11;28.60;1.00
429;DHT22;201;48.758;9.290;2022-08-01T15:09:37;28.60;1.00
429;DHT22;201;48.758;9.290;2022-08-01T15:12:02;28.70;1.00
429;DHT22;201;48.758;9.290;2022-08-01T15:14:28;29.10;1.00
429;DHT22;201;48.758;9.290;2022-08-01T15:17:13;29.00;1.00
429;DHT22;201;48.758;9.290;2022-08-01T15:19:38;29.20;1.00
429;DHT22;201;48.758;9.290;2022-08-01T15:22:04;29.30;1.00
429;DHT22;201;48.758;9.290;2022-08-01T15:24:30;29.10;1.00
429;DHT22;201;48.758;9.290;2022-08-01T15:26:56;28.90;1.00
429;DHT22;201;48.758;9.290;2022-08-01T15:29:21;28.90;1.00
429;DHT22;201;48.758;9.290;2022-08-01T15:31:47;28.90;1.00
429;DHT22;201;48.758;9.290;2022-08-01T15:34:12;28.90;1.00
429;DHT22;201;48.758;9.290;2022-08-01T15:36:38;28.90;1.00
429;DHT22;201;48.758;9.290;2022-08-01T15:39:03;28.60;1.00
429;DHT22;201;48.758;9.290;2022-08-01T15:41:29;28.50;1.00
429;DHT22;201;48.758;9.290;2022-08-01T15:43:54;28.20;1.00
429;DHT22;201;48.758;9.290;2022-08-01T15:46:20;27.90;1.00
429;DHT22;201;48.758;9.290;2022-08-01T15:48:45;27.80;1.00
429;DHT22;201;48.758;9.290;2022-08-01T15:51:11;28.10;1.00
429;DHT22;201;48.758;9.290;2022-08-01T15:53:36;28.20;1.00
429;DHT22;201;48.758;9.290;2022-08-01T15:56:02;28.20;1.00
429;DHT22;201;48.758;9.290;2022-08-01T15:58:27;28.30;1.00
429;DHT22;201;48.758;9.290;2022-08-01T16:00:53;28.20;1.00
429;DHT22;201;48.758;9.290;2022-08-01T16:03:19;28.30;1.00
429;DHT22;201;48.758;9.290;2022-08-01T16:05:46;28.10;1.00
429;DHT22;201;48.758;9.290;2022-08-01T16:08:14;28.00;1.00
429;DHT22;201;48.758;9.290;2022-08-01T16:10:40;28.00;1.00
429;DHT22;201;48.758;9.290;2022-08-01T16:13:06;27.90;1.00
429;DHT22;201;48.758;9.290;2022-08-01T16:15:32;27.80;1.00
429;DHT22;201;48.758;9.290;2022-08-01T16:17:57;27.60;1.00
429;DHT22;201;48.758;9.290;2022-08-01T16:20:23;27.50;1.00
429;DHT22;201;48.758;9.290;2022-08-01T16:22:48;27.50;1.00
429;DHT22;201;48.758;9.290;2022-08-01T16:25:14;27.40;1.00
429;DHT22;201;48.758;9.290;2022-08-01T16:27:40;27.40;1.00
429;DHT22;201;48.758;9.290;2022-08-01T16:30:06;27.60;1.00
429;DHT22;201;48.758;9.290;2022-08-01T16:32:32;27.70;1.00
429;DHT22;201;48.758;9.290;2022-08-01T16:34:57;27.70;1.00
429;DHT22;201;48.758;9.290;2022-08-01T16:37:23;27.60;1.00
429;DHT22;201;48.758;9.290;2022-08-01T16:39:48;27.70;1.00
429;DHT22;201;48.758;9.290;2022-08-01T16:42:14;27.40;1.00
429;DHT22;201;48.758;9.290;2022-08-01T16:44:39;27.20;1.00
429;DHT22;201;48.758;9.290;2022-08-01T16:47:05;27.20;1.00
429;DHT22;201;48.758;9.290;2022-08-01T16:49:31;27.00;1.00
429;DHT22;201;48.758;9.290;2022-08-01T16:51:56;26.90;1.00
429;DHT22;201;48.758;9.290;2022-08-01T16:54:22;26.80;1.00
429;DHT22;201;48.758;9.290;2022-08-01T16:56:47;26.90;1.00
429;DHT22;201;48.758;9.290;2022-08-01T16:59:13;26.80;1.00
429;DHT22;201;48.758;9.290;2022-08-01T17:01:38;26.80;1.00
429;DHT22;201;48.758;9.290;2022-08-01T17:04:05;26.80;1.00
429;DHT22;201;48.758;9.290;2022-08-01T17:06:30;26.90;1.00
429;DHT22;201;48.758;9.290;2022-08-01T17:08:56;26.90;1.00
429;DHT22;201;48.758;9.290;2022-08-01T17:11:21;27.00;1.00
429;DHT22;201;48.758;9.290;2022-08-01T17:13:47;27.10;1.00
429;DHT22;201;48.758;9.290;2022-08-01T17:16:13;27.20;1.00
429;DHT22;201;48.758;9.290;2022-08-01T17:18:39;27.30;1.00
429;DHT22;201;48.758;9.290;2022-08-01T17:21:04;27.40;1.00
429;DHT22;201;48.758;9.290;2022-08-01T17:23:30;27.40;1.00
429;DHT22;201;48.758;9.290;2022-08-01T17:25:56;27.20;1.00
429;DHT22;201;48.758;9.290;2022-08-01T17:28:22;27.30;1.00
429;DHT22;201;48.758;9.290;2022-08-01T17:30:47;27.30;1.00
429;DHT22;201;48.758;9.290;2022-08-01T17:33:13;26.90;1.00